createdAt,value
2019-02-27T00:00:20.486Z,22.35
2019-02-27T00:02:51.078Z,20.80
2019-02-27T00:05:21.718Z,23.95
2019-02-27T00:07:54.863Z,21.87
2019-02-27T00:10:24.629Z,21.70
2019-02-27T00:12:55.340Z,18.50
2019-02-27T00:15:26.013Z,12.88
2019-02-27T00:17:56.562Z,9.47
2019-02-27T00:20:27.128Z,13.70
2019-02-27T00:22:57.712Z,16.27
2019-02-27T00:25:28.321Z,15.00
2019-02-27T00:27:58.910Z,14.70
2019-02-27T00:30:29.455Z,15.70
2019-02-27T00:33:00.027Z,18.27
2019-02-27T00:35:30.609Z,19.00
2019-02-27T00:38:01.239Z,17.30
2019-02-27T00:40:31.868Z,17.40
2019-02-27T00:43:02.428Z,18.32
2019-02-27T00:45:33.051Z,16.57
2019-02-27T00:48:03.691Z,14.98
2019-02-27T00:50:34.332Z,16.48
2019-02-27T00:53:05.057Z,14.80
2019-02-27T00:55:38.644Z,19.23
2019-02-27T00:58:08.008Z,19.23
2019-02-27T01:00:39.316Z,22.20
2019-02-27T01:03:10.621Z,27.93
2019-02-27T01:05:41.722Z,28.00
2019-02-27T01:08:12.400Z,25.43
2019-02-27T01:10:45.312Z,23.07
2019-02-27T01:13:15.309Z,22.77
2019-02-27T01:15:45.911Z,21.45
2019-02-27T01:18:16.460Z,20.72
2019-02-27T01:20:47.039Z,21.02
2019-02-27T01:23:17.576Z,19.77
2019-02-27T01:25:48.155Z,20.55
2019-02-27T01:28:18.711Z,20.25
2019-02-27T01:30:49.259Z,20.50
2019-02-27T01:33:19.874Z,21.00
2019-02-27T01:35:52.266Z,21.60
2019-02-27T01:38:23.050Z,21.10
2019-02-27T01:40:53.737Z,23.32
2019-02-27T01:43:24.324Z,23.87
2019-02-27T01:45:55.044Z,23.75
2019-02-27T01:48:25.709Z,23.25
2019-02-27T01:50:56.293Z,21.40
2019-02-27T01:53:26.990Z,20.33
2019-02-27T01:55:57.550Z,19.40
2019-02-27T01:58:28.268Z,19.48
2019-02-27T02:00:58.825Z,19.87
2019-02-27T02:03:29.432Z,21.73
2019-02-27T02:06:00.023Z,20.15
2019-02-27T02:08:30.699Z,16.75
2019-02-27T02:11:02.037Z,17.62
2019-02-27T02:14:24.058Z,21.52
2019-02-27T02:17:41.922Z,24.40
2019-02-27T02:20:41.549Z,21.57
2019-02-27T02:23:49.460Z,21.68
2019-02-27T02:27:20.571Z,20.30
2019-02-27T02:30:33.743Z,19.60
2019-02-27T02:33:28.663Z,16.40
2019-02-27T02:37:02.425Z,18.17
2019-02-27T02:40:09.058Z,18.73
2019-02-27T02:43:41.984Z,19.85
2019-02-27T02:47:06.113Z,21.70
2019-02-27T02:50:46.321Z,20.43
2019-02-27T02:54:04.475Z,20.55
2019-02-27T02:57:05.154Z,21.77
2019-02-27T03:00:28.220Z,20.37
2019-02-27T03:03:43.804Z,21.45
2019-02-27T03:06:57.758Z,22.07
2019-02-27T03:10:08.373Z,24.63
2019-02-27T03:13:41.796Z,24.35
2019-02-27T03:16:59.252Z,23.73
2019-02-27T03:20:26.448Z,24.85
2019-02-27T03:23:52.071Z,23.70
2019-02-27T03:26:39.317Z,24.23
2019-02-27T03:30:34.278Z,21.55
2019-02-27T03:33:33.126Z,19.05
2019-02-27T03:37:04.553Z,21.37
2019-02-27T03:40:26.170Z,21.50
2019-02-27T03:43:38.561Z,23.73
2019-02-27T03:47:22.416Z,23.83
2019-02-27T03:50:36.593Z,21.63
2019-02-27T03:53:59.882Z,19.77
2019-02-27T03:57:34.516Z,18.52
2019-02-27T04:00:30.503Z,20.08
2019-02-27T04:04:03.809Z,18.80
2019-02-27T04:07:31.897Z,21.87
2019-02-27T04:10:02.970Z,23.62
2019-02-27T05:04:35.150Z,21.12
2019-02-27T05:07:06.916Z,19.70
2019-02-27T05:09:37.455Z,20.37
2019-02-27T05:12:08.274Z,17.10
2019-02-27T05:14:40.800Z,15.20
2019-02-27T05:17:12.868Z,16.42
2019-02-27T05:19:43.775Z,15.38
2019-02-27T05:22:14.248Z,18.12
2019-02-27T05:24:44.725Z,18.00
2019-02-27T05:27:15.256Z,22.37
2019-02-27T05:29:45.801Z,20.97
2019-02-27T05:32:18.149Z,24.00
2019-02-27T05:34:49.796Z,22.42
2019-02-27T05:37:21.032Z,23.77
2019-02-27T05:39:51.761Z,23.30
2019-02-27T05:42:22.372Z,23.75
2019-02-27T05:44:55.488Z,24.57
2019-02-27T05:47:25.200Z,23.12
2019-02-27T05:49:57.988Z,22.20
2019-02-27T05:52:27.966Z,22.62
2019-02-27T05:54:58.497Z,24.45
2019-02-27T05:57:28.953Z,24.15
2019-02-27T06:00:02.189Z,23.47
2019-02-27T06:02:31.742Z,21.82
2019-02-27T06:05:02.526Z,20.70
2019-02-27T06:07:33.052Z,17.32
2019-02-27T06:10:03.618Z,17.48
2019-02-27T06:12:34.069Z,18.60
2019-02-27T06:15:04.696Z,20.60
2019-02-27T06:17:43.151Z,21.20
2019-02-27T06:20:08.598Z,23.40
2019-02-27T06:22:39.317Z,23.22
2019-02-27T06:25:13.199Z,23.45
2019-02-27T06:27:43.775Z,22.20
2019-02-27T06:30:17.626Z,21.33
2019-02-27T06:32:48.209Z,21.52
2019-02-27T06:35:18.749Z,23.35
2019-02-27T06:37:50.766Z,19.93
2019-02-27T06:40:21.513Z,24.55
2019-02-27T06:42:53.840Z,32.60
2019-02-27T06:45:24.275Z,25.08
2019-02-27T06:47:54.770Z,22.70
2019-02-27T06:50:26.081Z,21.02
2019-02-27T06:52:56.645Z,19.52
2019-02-27T06:55:28.133Z,20.20
2019-02-27T06:57:59.486Z,21.75
2019-02-27T07:00:29.974Z,21.60
2019-02-27T07:03:00.566Z,21.90
2019-02-27T07:05:31.200Z,22.82
2019-02-27T07:08:04.332Z,24.52
2019-02-27T07:10:34.048Z,24.05
2019-02-27T07:13:04.542Z,24.67
2019-02-27T07:15:35.075Z,23.52
2019-02-27T07:18:06.231Z,25.05
2019-02-27T07:20:37.233Z,24.00
2019-02-27T07:23:07.723Z,24.63
2019-02-27T07:25:41.987Z,24.18
2019-02-27T07:28:10.443Z,22.13
2019-02-27T07:30:42.581Z,23.47
2019-02-27T07:33:13.150Z,29.18
2019-02-27T07:35:43.669Z,25.20
2019-02-27T07:38:14.098Z,24.98
2019-02-27T07:40:44.635Z,23.42
2019-02-27T07:43:15.137Z,21.90
2019-02-27T07:45:46.226Z,22.00
2019-02-27T07:48:16.943Z,22.05
2019-02-27T07:50:49.176Z,21.37
2019-02-27T07:53:19.648Z,23.20
2019-02-27T07:55:50.173Z,21.40
2019-02-27T07:58:20.643Z,23.18
2019-02-27T08:00:51.137Z,26.15
2019-02-27T08:03:21.663Z,24.85
2019-02-27T08:05:52.132Z,23.65
2019-02-27T08:08:23.617Z,25.60
2019-02-27T08:10:54.975Z,27.17
2019-02-27T08:13:27.078Z,26.60
2019-02-27T08:15:58.122Z,23.95
2019-02-27T08:18:30.557Z,24.77
2019-02-27T08:21:01.483Z,24.10
2019-02-27T08:23:32.894Z,22.50
2019-02-27T08:26:05.182Z,21.35
2019-02-27T08:28:35.865Z,20.02
2019-02-27T08:31:06.398Z,19.67
2019-02-27T08:33:36.955Z,19.92
2019-02-27T08:36:07.471Z,19.27
2019-02-27T08:38:37.982Z,19.98
2019-02-27T08:41:08.487Z,19.70
2019-02-27T08:43:41.191Z,17.75
2019-02-27T08:46:11.230Z,18.90
2019-02-27T08:48:41.918Z,18.00
2019-02-27T08:51:12.398Z,18.43
2019-02-27T08:53:42.906Z,17.98
2019-02-27T08:56:13.450Z,17.40
2019-02-27T08:58:43.967Z,17.48
2019-02-27T09:01:14.585Z,16.97
2019-02-27T09:03:45.170Z,18.30
2019-02-27T09:06:18.384Z,18.23
2019-02-27T09:08:47.899Z,18.30
2019-02-27T09:11:18.445Z,17.77
2019-02-27T09:13:48.920Z,16.90
2019-02-27T09:16:19.415Z,17.12
2019-02-27T09:18:49.953Z,16.97
2019-02-27T09:21:20.499Z,17.95
2019-02-27T09:23:51.094Z,16.82
2019-02-27T09:26:21.650Z,16.82
2019-02-27T09:28:52.146Z,16.50
2019-02-27T09:31:22.632Z,17.40
2019-02-27T09:33:53.905Z,17.75
2019-02-27T09:36:24.445Z,16.50
2019-02-27T09:38:57.329Z,17.92
2019-02-27T09:41:27.102Z,17.20
2019-02-27T09:43:58.618Z,16.30
2019-02-27T09:46:29.738Z,18.17
2019-02-27T09:49:00.290Z,18.40
2019-02-27T09:51:30.771Z,17.90
2019-02-27T09:54:01.240Z,18.00
2019-02-27T09:56:32.811Z,19.48
2019-02-27T09:59:03.361Z,17.98
2019-02-27T10:01:35.151Z,17.12
2019-02-27T10:04:05.935Z,17.90
2019-02-27T10:06:36.454Z,19.32
2019-02-27T10:09:08.803Z,17.40
2019-02-27T10:11:39.353Z,16.97
2019-02-27T10:14:09.852Z,16.27
2019-02-27T10:16:40.344Z,16.20
2019-02-27T10:19:10.942Z,16.67
2019-02-27T10:21:41.480Z,16.32
2019-02-27T10:24:13.690Z,16.42
2019-02-27T10:26:44.278Z,16.07
2019-02-27T10:29:14.793Z,17.80
2019-02-27T10:31:45.334Z,17.20
2019-02-27T10:34:17.587Z,16.27
2019-02-27T10:36:48.558Z,16.73
2019-02-27T10:39:19.186Z,15.63
2019-02-27T10:41:50.646Z,15.32
2019-02-27T10:44:21.224Z,16.35
2019-02-27T10:46:52.161Z,15.80
2019-02-27T10:49:22.755Z,15.43
2019-02-27T10:51:53.292Z,15.40
2019-02-27T10:54:23.833Z,15.10
2019-02-27T10:56:56.334Z,13.93
2019-02-27T10:59:26.654Z,14.95
2019-02-27T11:01:57.190Z,15.35
2019-02-27T11:04:27.814Z,14.05
2019-02-27T11:06:58.420Z,15.25
2019-02-27T11:09:30.365Z,14.63
2019-02-27T11:12:00.892Z,13.85
2019-02-27T11:14:32.661Z,12.98
2019-02-27T11:17:03.488Z,14.30
2019-02-27T11:19:34.906Z,13.78
2019-02-27T11:22:05.603Z,12.70
2019-02-27T11:24:36.131Z,13.55
2019-02-27T11:27:06.893Z,13.22
2019-02-27T11:29:37.566Z,14.47
2019-02-27T11:32:08.099Z,12.37
2019-02-27T11:34:38.672Z,14.15
2019-02-27T11:37:12.969Z,12.60
2019-02-27T11:39:41.389Z,14.03
2019-02-27T11:42:11.999Z,13.35
2019-02-27T11:44:42.627Z,13.83
2019-02-27T11:47:13.164Z,12.07
2019-02-27T11:49:43.779Z,12.95
2019-02-27T11:52:14.270Z,13.48
2019-02-27T11:54:44.785Z,12.60
2019-02-27T11:57:15.427Z,13.60
2019-02-27T11:59:47.000Z,14.00
2019-02-27T12:02:18.092Z,12.18
2019-02-27T12:04:53.355Z,12.07
2019-02-27T12:07:20.964Z,12.10
2019-02-27T12:09:51.444Z,12.03
2019-02-27T12:12:24.100Z,12.35
2019-02-27T12:14:54.673Z,13.45
2019-02-27T12:17:25.688Z,12.43
2019-02-27T12:19:56.425Z,12.28
2019-02-27T12:22:26.941Z,12.78
2019-02-27T12:24:58.347Z,12.07
2019-02-27T12:27:48.004Z,12.50
2019-02-27T12:30:02.998Z,14.45
2019-02-27T12:32:33.575Z,13.95
2019-02-27T12:35:04.111Z,13.30
2019-02-27T12:37:34.933Z,13.60
2019-02-27T12:40:06.945Z,13.98
2019-02-27T12:42:42.168Z,13.93
2019-02-27T12:45:14.017Z,13.53
2019-02-27T12:47:45.025Z,12.75
2019-02-27T12:50:18.824Z,13.08
2019-02-27T12:52:49.426Z,12.60
2019-02-27T12:55:20.598Z,12.65
2019-02-27T12:57:52.406Z,14.00
2019-02-27T13:00:28.757Z,12.85
2019-02-27T13:02:59.490Z,13.32
2019-02-27T13:05:30.671Z,13.05
2019-02-27T13:08:01.183Z,12.95
2019-02-27T13:10:34.015Z,12.60
2019-02-27T13:13:03.985Z,13.23
2019-02-27T13:15:34.513Z,12.80
2019-02-27T13:18:05.080Z,13.00
2019-02-27T13:20:35.784Z,12.73
2019-02-27T13:23:06.308Z,11.90
2019-02-27T13:25:36.859Z,13.60
2019-02-27T13:28:07.367Z,12.78
2019-02-27T13:30:41.303Z,13.45
2019-02-27T13:33:10.140Z,13.90
2019-02-27T13:35:40.733Z,13.13
2019-02-27T13:38:11.220Z,13.13
2019-02-27T13:40:41.766Z,13.60
2019-02-27T13:43:12.308Z,12.40
2019-02-27T13:45:47.279Z,13.20
2019-02-27T13:48:15.056Z,12.95
2019-02-27T13:50:45.606Z,11.85
2019-02-27T13:53:16.144Z,12.05
2019-02-27T13:55:48.305Z,12.20
2019-02-27T13:58:18.890Z,11.33
2019-02-27T14:00:49.389Z,11.63
2019-02-27T14:03:19.921Z,10.87
2019-02-27T14:05:50.516Z,11.17
2019-02-27T14:08:20.982Z,10.93
2019-02-27T14:10:53.386Z,11.40
2019-02-27T14:13:23.759Z,11.75
2019-02-27T14:15:54.291Z,11.30
2019-02-27T14:18:24.848Z,12.07
2019-02-27T14:20:55.355Z,11.70
2019-02-27T14:23:25.842Z,11.12
2019-02-27T14:25:56.345Z,11.38
2019-02-27T14:28:26.889Z,11.28
2019-02-27T14:30:58.739Z,10.10
2019-02-27T14:33:29.954Z,9.50
2019-02-27T14:36:00.697Z,10.18
2019-02-27T14:38:31.212Z,9.13
2019-02-27T14:41:01.739Z,8.90
2019-02-27T14:43:32.251Z,10.03
2019-02-27T14:46:02.797Z,9.00
2019-02-27T14:48:33.377Z,9.15
2019-02-27T14:51:07.164Z,8.98
2019-02-27T14:53:36.092Z,9.63
2019-02-27T14:56:09.200Z,9.23
2019-02-27T14:58:38.924Z,8.20
2019-02-27T15:01:11.841Z,8.90
2019-02-27T15:03:43.318Z,7.50
2019-02-27T15:06:15.894Z,8.70
2019-02-27T15:08:55.208Z,7.97
2019-02-27T15:11:18.386Z,7.80
2019-02-27T15:13:48.930Z,7.90
2019-02-27T15:16:19.535Z,8.63
2019-02-27T15:18:50.075Z,8.80
2019-02-27T15:21:20.652Z,8.07
2019-02-27T15:23:51.232Z,8.53
2019-02-27T15:26:21.742Z,8.70
2019-02-27T15:28:52.237Z,8.20
2019-02-27T15:31:22.885Z,9.30
2019-02-27T15:33:54.000Z,9.40
2019-02-27T15:36:29.462Z,8.65
2019-02-27T15:38:56.956Z,9.13
2019-02-27T15:41:27.410Z,8.80
2019-02-27T15:44:00.466Z,9.80
2019-02-27T15:46:30.274Z,9.40
2019-02-27T15:49:00.865Z,10.80
2019-02-27T15:51:32.339Z,10.00
2019-02-27T15:54:03.727Z,10.73
2019-02-27T15:56:34.288Z,9.80
2019-02-27T15:59:08.106Z,10.40
2019-02-27T16:01:37.227Z,10.25
2019-02-27T16:04:07.748Z,10.80
2019-02-27T16:06:39.819Z,10.20
2019-02-27T16:09:11.469Z,10.60
2019-02-27T16:11:42.181Z,10.15
2019-02-27T16:14:12.671Z,10.78
2019-02-27T16:16:43.327Z,11.10
2019-02-27T16:19:13.862Z,11.12
2019-02-27T16:21:44.543Z,11.97
2019-02-27T16:24:15.059Z,12.60
2019-02-27T16:26:45.646Z,11.20
2019-02-27T16:29:16.169Z,12.40
2019-02-27T16:31:46.781Z,11.88
2019-02-27T16:34:17.376Z,12.28
2019-02-27T16:36:47.976Z,12.75
2019-02-27T16:39:18.965Z,11.67
2019-02-27T16:41:49.508Z,12.05
2019-02-27T16:44:22.054Z,12.78
2019-02-27T16:46:53.516Z,11.80
2019-02-27T16:49:24.267Z,12.78
2019-02-27T16:51:54.888Z,13.60
2019-02-27T16:54:27.478Z,12.00
2019-02-27T16:56:58.273Z,13.03
2019-02-27T16:59:28.912Z,12.40
2019-02-27T17:02:00.906Z,12.35
2019-02-27T17:04:34.112Z,13.00
2019-02-27T17:07:04.226Z,12.73
2019-02-27T17:09:34.766Z,12.47
2019-02-27T17:12:07.089Z,13.80
2019-02-27T17:14:39.287Z,13.93
2019-02-27T17:17:09.950Z,13.50
2019-02-27T17:19:40.630Z,13.03
2019-02-27T17:22:11.308Z,13.85
2019-02-27T17:24:41.794Z,13.90
2019-02-27T17:27:12.983Z,13.50
2019-02-27T17:29:44.744Z,14.85
2019-02-27T17:32:15.339Z,13.30
2019-02-27T17:34:47.660Z,14.53
2019-02-27T17:37:18.069Z,15.13
2019-02-27T17:39:48.481Z,13.93
2019-02-27T17:42:19.337Z,12.70
2019-02-27T17:44:49.904Z,13.25
2019-02-27T17:47:20.410Z,13.48
2019-02-27T17:49:51.020Z,14.47
2019-02-27T17:52:21.521Z,12.63
2019-02-27T17:54:52.062Z,12.68
2019-02-27T17:57:24.993Z,13.30
2019-02-27T17:59:54.984Z,13.73
2019-02-27T18:02:25.502Z,14.50
2019-02-27T18:04:56.016Z,13.55
2019-02-27T18:07:34.237Z,14.25
2019-02-27T18:10:01.167Z,14.20
2019-02-27T18:12:30.970Z,14.55
2019-02-27T18:15:01.443Z,14.98
2019-02-27T18:17:34.706Z,14.70
2019-02-27T18:20:04.490Z,14.68
2019-02-27T18:22:35.121Z,14.55
2019-02-27T18:25:07.503Z,14.53
2019-02-27T18:27:38.199Z,13.80
2019-02-27T18:30:10.492Z,12.58
2019-02-27T18:32:41.011Z,13.13
2019-02-27T18:35:13.202Z,12.60
2019-02-27T18:37:43.718Z,13.75
2019-02-27T18:40:14.852Z,13.00
2019-02-27T18:42:45.504Z,14.75
2019-02-27T18:45:17.188Z,13.37
2019-02-27T18:47:47.749Z,13.50
2019-02-27T18:50:18.591Z,14.00
2019-02-27T18:52:49.267Z,14.87
2019-02-27T18:55:20.033Z,15.78
2019-02-27T18:57:50.617Z,13.00
2019-02-27T19:00:22.671Z,13.25
2019-02-27T19:02:54.704Z,12.70
2019-02-27T19:05:25.212Z,12.95
2019-02-27T19:07:55.787Z,13.45
2019-02-27T19:10:26.303Z,15.67
2019-02-27T19:12:59.965Z,16.37
2019-02-27T19:15:29.318Z,15.85
2019-02-27T19:17:59.914Z,15.53
2019-02-27T19:20:31.746Z,15.10
2019-02-27T19:23:02.242Z,13.30
2019-02-27T19:25:34.648Z,15.20
2019-02-27T19:28:05.299Z,13.68
2019-02-27T19:30:38.760Z,14.15
2019-02-27T19:33:08.320Z,13.32
2019-02-27T19:35:39.774Z,12.63
2019-02-27T19:38:12.962Z,12.90
2019-02-27T19:40:42.787Z,12.50
2019-02-27T19:43:13.428Z,13.32
2019-02-27T19:45:43.983Z,13.85
2019-02-27T19:48:14.784Z,13.78
2019-02-27T19:50:46.396Z,13.05
2019-02-27T19:53:17.098Z,12.90
2019-02-27T19:55:47.620Z,12.98
2019-02-27T19:58:18.392Z,11.88
2019-02-27T20:00:49.034Z,12.77
2019-02-27T20:03:20.777Z,12.68
2019-02-27T20:05:53.236Z,13.23
2019-02-27T20:08:23.594Z,13.50
2019-02-27T20:10:54.196Z,12.58
2019-02-27T20:13:28.047Z,13.80
2019-02-27T20:15:58.538Z,12.80
2019-02-27T20:18:29.020Z,16.10
2019-02-27T20:20:59.558Z,15.28
2019-02-27T20:23:30.150Z,13.80
2019-02-27T20:26:00.774Z,13.30
2019-02-27T20:28:31.758Z,12.83
2019-02-27T20:31:03.298Z,12.98
2019-02-27T20:33:34.197Z,12.88
2019-02-27T20:36:06.130Z,12.75
2019-02-27T20:38:36.999Z,13.30
2019-02-27T20:41:07.549Z,14.20
2019-02-27T20:43:38.079Z,13.22
2019-02-27T20:46:10.362Z,12.85
2019-02-27T20:48:40.926Z,13.08
2019-02-27T20:51:11.550Z,13.13
2019-02-27T20:53:42.259Z,13.53
2019-02-27T20:56:12.759Z,11.75
2019-02-27T20:58:43.411Z,13.22
2019-02-27T21:01:14.062Z,12.53
2019-02-27T21:03:44.577Z,12.90
2019-02-27T21:06:15.108Z,12.37
2019-02-27T21:08:45.701Z,14.00
2019-02-27T21:11:16.181Z,13.08
2019-02-27T21:13:49.321Z,14.40
2019-02-27T21:16:19.067Z,13.05
2019-02-27T21:18:49.564Z,13.72
2019-02-27T21:21:20.744Z,12.53
2019-02-27T21:23:51.634Z,13.40
2019-02-27T21:26:22.953Z,13.53
2019-02-27T21:28:58.527Z,13.00
2019-02-27T21:31:27.542Z,12.28
2019-02-27T21:33:58.338Z,12.05
2019-02-27T21:36:28.842Z,12.98
2019-02-27T21:38:59.441Z,13.55
2019-02-27T21:41:29.945Z,13.10
2019-02-27T21:44:00.466Z,12.73
2019-02-27T21:46:31.011Z,13.80
2019-02-27T21:49:01.545Z,13.43
2019-02-27T21:51:32.127Z,12.50
2019-02-27T21:54:03.825Z,12.43
2019-02-27T21:56:34.909Z,13.08
2019-02-27T21:59:08.460Z,13.80
2019-02-27T22:01:38.950Z,12.40
2019-02-27T22:04:10.819Z,12.75
2019-02-27T22:06:41.361Z,13.15
2019-02-27T22:09:13.568Z,12.90
2019-02-27T22:11:44.216Z,13.62
2019-02-27T22:14:16.664Z,13.18
2019-02-27T22:16:46.980Z,13.38
2019-02-27T22:19:18.887Z,14.20
2019-02-27T22:21:49.762Z,14.50
2019-02-27T22:24:21.017Z,13.72
2019-02-27T22:26:52.227Z,16.15
2019-02-27T22:29:25.199Z,14.45
2019-02-27T22:31:55.144Z,14.87
2019-02-27T22:34:27.720Z,14.55
2019-02-27T22:36:58.232Z,15.72
2019-02-27T22:39:31.694Z,15.58
2019-02-27T22:42:01.541Z,14.73
2019-02-27T22:44:32.079Z,16.17
2019-02-27T22:47:02.645Z,16.10
2019-02-27T22:49:33.248Z,14.98
2019-02-27T22:52:03.748Z,15.00
2019-02-27T22:54:36.007Z,16.40
2019-02-27T22:57:07.059Z,15.35
2019-02-27T22:59:38.136Z,16.45
2019-02-27T23:02:08.859Z,15.65
2019-02-27T23:04:39.629Z,15.60
2019-02-27T23:07:10.650Z,15.70
2019-02-27T23:09:41.429Z,15.50
2019-02-27T23:12:12.057Z,16.73
2019-02-27T23:14:42.607Z,16.77
2019-02-27T23:17:13.109Z,17.17
2019-02-27T23:19:46.198Z,18.05
2019-02-27T23:22:17.523Z,18.15
2019-02-27T23:25:06.135Z,18.90
2019-02-27T23:27:36.648Z,19.20
2019-02-27T23:30:14.787Z,18.95
2019-02-27T23:32:41.282Z,21.40
2019-02-27T23:35:15.845Z,20.10
2019-02-27T23:37:44.059Z,21.42
2019-02-27T23:40:17.570Z,22.20
2019-02-27T23:42:46.825Z,24.80
2019-02-27T23:45:17.312Z,24.52
2019-02-27T23:47:47.863Z,23.52
2019-02-27T23:50:18.330Z,23.57
2019-02-27T23:52:48.819Z,26.23
2019-02-27T23:55:19.253Z,25.60
2019-02-27T23:57:49.736Z,25.75
